Página principal
METAR-TAF:

METAR-TAF

Aeroportos :

Poteau, Oklahoma, Estados Unidos

latitude: 35-01-18N, longitude: 094-37-17W, altura: 138 m

Observação actual do tempo

O boletim foi feito há 14 minutos, às 09:55 UTC
Vento 7 kt de sudoeste com rajadas de 14 kt
Temperatura 11°C
Humidade 66%
Pressão 1018 hPa
Visibilidade: 16.1 km
Céu limpo

METAR: KRKR 120955Z AUTO 22007G14KT 10SM CLR 11/05 A3005 RMK AO2

Hora: 04:09 (10:09 UTC)


TAF: em falta

Observações e previsões do tempo de mais de 4000 aeroportos (mensagens METAR e TAF).

As estações disponíveis são os pontos amarelos e vermelhos sobre o mapa.

Mova o rato sobre o mapa para ver o nome da estação.

Depois clique no ponto para visualizar as observações e previsões meteorológicas.

Para alterar o mapa : clique nos botões verdes com uma cruz preta para aumentar o zoom; no botão verde com uma pitada de zoom; ou nas setas verdes para mapas adjacentes.


METAR-TAF: